Time;durP1;ratioP1;P1;durP2;ratioP2;P2;SDS_P1;SDS_P2;PMS_P1;PMS_P2;Temp;Humidity;BMP_temperature;BMP_pressure;BME280_temperature;BME280_humidity;BME280_pressure;Samples;Min_cycle;Max_cycle;Signal;HPM_P1;HPM_P2
2023/04/18 00:00:17;;;;;;;4.60;2.20;;;;;;;14.84;57.69;98907.06;4330463;33;33445;-85
2023/04/18 00:02:44;;;;;;;7.60;2.65;;;;;;;15.13;57.05;98902.47;4344110;33;33894;-87
2023/04/18 00:05:12;;;;;;;4.45;2.55;;;;;;;14.87;57.72;98907.94;4344911;33;33561;-86
2023/04/18 00:07:40;;;;;;;4.85;2.53;;;;;;;15.11;56.96;98909.44;4343349;32;33782;-86
2023/04/18 00:10:07;;;;;;;4.62;2.40;;;;;;;15.20;56.58;98911.97;4344249;32;33906;-85
2023/04/18 00:12:36;;;;;;;6.30;3.03;;;;;;;15.06;56.93;98912.97;4343453;33;34978;-86
2023/04/18 00:15:07;;;;;;;5.55;2.67;;;;;;;14.99;57.38;98916.50;4331377;32;33141;-86
2023/04/18 00:17:37;;;;;;;4.97;2.42;;;;;;;15.09;57.22;98907.72;4330158;33;33977;-85
2023/04/18 00:20:09;;;;;;;5.68;2.85;;;;;;;15.13;57.45;98919.00;4330334;33;34588;-86
2023/04/18 00:22:41;;;;;;;4.87;2.53;;;;;;;14.90;57.90;98911.37;4344443;33;34062;-87
2023/04/18 00:25:09;;;;;;;7.22;2.97;;;;;;;15.07;57.57;98914.69;4339684;33;34134;-87
2023/04/18 00:27:38;;;;;;;5.43;2.90;;;;;;;15.15;57.02;98911.13;4343451;32;34836;-87
2023/04/18 00:30:06;;;;;;;5.75;3.20;;;;;;;14.92;58.10;98912.22;4329143;32;32497;-86
2023/04/18 00:32:37;;;;;;;5.60;3.17;;;;;;;14.99;57.56;98916.50;4329090;33;34150;-87
2023/04/18 00:35:05;;;;;;;6.05;3.22;;;;;;;14.66;58.98;98911.56;4330338;33;33381;-87
2023/04/18 00:37:32;;;;;;;6.07;3.37;;;;;;;14.87;58.19;98918.37;4343382;32;34060;-86
2023/04/18 00:40:00;;;;;;;6.60;3.70;;;;;;;14.89;57.71;98909.66;4342572;32;34830;-86
2023/04/18 00:42:28;;;;;;;5.65;2.90;;;;;;;14.81;58.27;98916.66;4330890;32;33845;-85
2023/04/18 00:44:55;;;;;;;6.12;2.90;;;;;;;14.86;57.84;98903.59;4343300;32;33269;-86
2023/04/18 00:47:23;;;;;;;6.90;3.25;;;;;;;15.11;56.53;98912.03;4330176;33;33811;-86
2023/04/18 00:49:50;;;;;;;5.30;2.97;;;;;;;14.52;58.69;98909.06;4343419;32;34012;-85
2023/04/18 00:52:18;;;;;;;7.12;3.83;;;;;;;14.60;58.09;98908.12;4344066;33;34693;-85
2023/04/18 00:54:46;;;;;;;5.55;3.42;;;;;;;14.81;57.64;98908.81;4333565;33;33490;-86
2023/04/18 00:57:14;;;;;;;6.00;3.42;;;;;;;14.76;57.37;98913.22;4331811;33;34616;-87
2023/04/18 00:59:41;;;;;;;5.57;3.33;;;;;;;14.69;57.78;98908.94;4331841;33;35016;-87
2023/04/18 01:02:08;;;;;;;6.30;3.35;;;;;;;14.58;58.06;98909.00;4343485;32;33735;-86
2023/04/18 01:04:37;;;;;;;5.68;3.08;;;;;;;14.84;56.63;98911.41;4331315;33;33559;-86
2023/04/18 01:07:08;;;;;;;6.12;3.37;;;;;;;14.71;57.21;98907.19;4331229;33;32744;-86
2023/04/18 01:09:35;;;;;;;5.97;3.67;;;;;;;14.88;56.95;98912.25;4344134;32;35114;-85
2023/04/18 01:12:03;;;;;;;6.80;3.30;;;;;;;14.80;56.65;98910.56;4345058;33;34030;-85
2023/04/18 01:14:31;;;;;;;6.45;3.10;;;;;;;14.83;56.76;98912.31;4344857;33;33533;-86
2023/04/18 01:16:58;;;;;;;5.82;3.08;;;;;;;15.05;56.28;98913.00;4344054;33;34718;-85
2023/04/18 01:19:26;;;;;;;8.98;3.65;;;;;;;15.02;57.14;98900.81;4344382;33;34688;-87
2023/04/18 01:21:53;;;;;;;5.93;3.33;;;;;;;14.99;56.75;98910.41;4344339;32;33717;-86
2023/04/18 01:24:23;;;;;;;5.87;3.58;;;;;;;15.08;56.55;98915.56;4343813;32;33492;-87
2023/04/18 01:26:51;;;;;;;7.20;3.75;;;;;;;15.35;56.26;98911.81;4343471;32;33609;-86
2023/04/18 01:29:18;;;;;;;7.55;3.70;;;;;;;14.98;56.20;98913.91;4344451;33;34155;-86
2023/04/18 01:31:45;;;;;;;7.03;4.30;;;;;;;14.73;56.80;98908.88;4344399;33;33927;-85
2023/04/18 01:34:16;;;;;;;6.32;3.60;;;;;;;14.75;56.98;98914.13;4341874;33;34036;-86
2023/04/18 01:36:44;;;;;;;7.60;3.53;;;;;;;14.92;56.17;98914.81;4317806;33;32818;-86
2023/04/18 01:39:12;;;;;;;6.07;3.53;;;;;;;15.07;55.55;98913.81;4332494;32;34110;-86
2023/04/18 01:41:43;;;;;;;6.40;3.97;;;;;;;14.95;55.81;98909.59;4332318;33;32734;-88
2023/04/18 01:44:10;;;;;;;7.82;3.67;;;;;;;14.99;56.02;98911.28;4343349;32;33587;-85
2023/04/18 01:46:39;;;;;;;7.12;4.10;;;;;;;15.07;55.83;98904.25;4343726;33;34843;-84
2023/04/18 01:49:08;;;;;;;10.50;4.53;;;;;;;15.03;56.01;98918.19;4343230;33;34624;-85
2023/04/18 01:51:37;;;;;;;6.62;3.67;;;;;;;14.96;56.73;98913.06;4329782;32;33851;-85
2023/04/18 01:54:05;;;;;;;6.43;3.80;;;;;;;15.06;56.84;98919.94;4330627;33;33465;-85
2023/04/18 01:56:32;;;;;;;7.15;3.95;;;;;;;15.06;57.14;98912.97;4343029;33;34064;-85
2023/04/18 01:59:00;;;;;;;7.35;4.00;;;;;;;15.18;57.32;98921.56;4343737;32;33984;-84
2023/04/18 02:01:27;;;;;;;6.57;3.80;;;;;;;15.25;57.36;98916.25;4344419;33;32732;-87
2023/04/18 02:03:57;;;;;;;6.40;3.92;;;;;;;15.11;58.82;98922.50;4343330;32;34580;-86
2023/04/18 02:06:25;;;;;;;8.32;4.75;;;;;;;15.20;58.88;98920.66;4343436;32;34503;-85
2023/04/18 02:08:52;;;;;;;8.43;4.30;;;;;;;15.22;59.17;98918.03;4342666;32;34996;-85
2023/04/18 02:11:21;;;;;;;8.63;4.65;;;;;;;15.33;59.27;98926.63;4342634;32;33975;-86
2023/04/18 02:13:48;;;;;;;6.40;3.60;;;;;;;15.18;60.31;98927.63;4343352;32;33546;-85
2023/04/18 02:16:15;;;;;;;8.43;4.30;;;;;;;15.21;60.00;98925.00;4343760;32;34695;-86
2023/04/18 02:18:43;;;;;;;6.65;4.03;;;;;;;14.77;61.54;98923.69;4343178;32;35247;-85
2023/04/18 02:21:13;;;;;;;6.70;3.83;;;;;;;15.14;60.61;98925.06;4342679;32;34507;-84
2023/04/18 02:23:41;;;;;;;7.07;4.60;;;;;;;15.20;60.63;98925.91;4343006;33;33027;-86
2023/04/18 02:26:08;;;;;;;10.10;4.93;;;;;;;15.03;61.08;98927.78;4342077;32;33644;-85
2023/04/18 02:28:37;;;;;;;7.43;4.62;;;;;;;14.94;61.16;98922.66;4343636;32;35425;-85
2023/04/18 02:31:06;;;;;;;7.87;5.12;;;;;;;14.78;60.98;98927.16;4344863;32;33375;-85
2023/04/18 02:33:34;;;;;;;7.78;4.25;;;;;;;14.85;60.95;98928.84;4343584;33;33372;-85
2023/04/18 02:36:02;;;;;;;7.53;4.68;;;;;;;15.02;60.49;98928.66;4343149;32;33630;-85
2023/04/18 02:38:30;;;;;;;7.95;4.50;;;;;;;15.06;60.77;98928.63;4343357;33;34286;-84
2023/04/18 02:40:58;;;;;;;7.80;4.37;;;;;;;15.13;61.00;98928.56;4328428;33;33466;-85
2023/04/18 02:43:26;;;;;;;10.57;4.50;;;;;;;14.79;62.24;98923.66;4343479;32;33481;-84
2023/04/18 02:45:54;;;;;;;8.82;4.70;;;;;;;14.93;61.69;98927.00;4330005;33;33895;-85
2023/04/18 02:48:22;;;;;;;8.15;4.75;;;;;;;14.76;61.96;98926.28;4329434;33;33883;-85
2023/04/18 02:50:50;;;;;;;8.85;5.07;;;;;;;14.98;61.27;98940.87;4316631;33;34324;-85
2023/04/18 02:53:18;;;;;;;7.10;4.35;;;;;;;14.79;61.87;98934.09;4343308;32;33533;-85
2023/04/18 02:55:46;;;;;;;6.87;4.47;;;;;;;14.93;61.72;98942.69;4341600;32;33891;-86
2023/04/18 02:58:14;;;;;;;7.15;4.03;;;;;;;14.88;62.10;98938.34;4342906;33;33964;-85
2023/04/18 03:00:43;;;;;;;10.05;4.68;;;;;;;14.95;61.89;98946.12;4342256;32;33762;-84
2023/04/18 03:03:11;;;;;;;7.95;4.65;;;;;;;14.55;63.07;98949.06;4343619;32;33265;-84
2023/04/18 03:05:39;;;;;;;8.43;4.62;;;;;;;14.77;62.49;98943.66;4344311;33;34606;-85
2023/04/18 03:08:07;;;;;;;7.50;4.53;;;;;;;14.57;62.54;98951.63;4345260;33;34251;-85
2023/04/18 03:10:35;;;;;;;8.27;4.87;;;;;;;14.82;61.15;98945.38;4343933;33;34928;-85
2023/04/18 03:13:03;;;;;;;8.00;4.35;;;;;;;14.78;59.10;98955.84;4320031;33;32572;-85
2023/04/18 03:15:31;;;;;;;7.43;4.45;;;;;;;14.22;61.17;98954.44;4346363;33;33976;-85
2023/04/18 03:17:58;;;;;;;8.23;4.78;;;;;;;14.65;59.54;98947.22;4331165;33;34149;-84
2023/04/18 03:20:27;;;;;;;8.27;5.45;;;;;;;14.76;59.50;98950.63;4332567;33;34524;-85
2023/04/18 03:22:56;;;;;;;7.37;4.78;;;;;;;14.82;59.50;98955.81;4344595;32;33643;-85
2023/04/18 03:25:23;;;;;;;6.82;4.75;;;;;;;14.95;59.67;98940.91;4344433;33;33883;-84
2023/04/18 03:27:51;;;;;;;9.07;5.35;;;;;;;14.92;60.27;98950.50;4328545;33;34819;-84
2023/04/18 03:30:19;;;;;;;8.77;5.25;;;;;;;14.96;60.86;98957.44;4341257;33;33589;-85
2023/04/18 03:32:47;;;;;;;9.95;5.05;;;;;;;14.66;61.62;98955.91;4330911;33;33501;-86
2023/04/18 03:35:15;;;;;;;7.80;5.03;;;;;;;14.93;61.18;98950.50;4341442;32;33785;-85
2023/04/18 03:37:43;;;;;;;9.15;5.25;;;;;;;15.04;61.15;98956.50;4344579;33;33880;-86
2023/04/18 03:40:12;;;;;;;8.70;4.55;;;;;;;14.96;61.65;98958.28;4334875;32;32775;-84
2023/04/18 03:42:40;;;;;;;8.73;4.80;;;;;;;14.91;61.85;98960.09;4344340;32;33544;-85
2023/04/18 03:45:10;;;;;;;10.10;5.30;;;;;;;14.98;61.19;98950.47;4332103;33;34064;-84
2023/04/18 03:47:37;;;;;;;9.27;5.80;;;;;;;14.97;61.37;98952.22;4344261;33;33970;-85
2023/04/18 03:50:05;;;;;;;8.77;5.85;;;;;;;14.96;61.97;98958.28;4345367;32;34336;-86
2023/04/18 03:52:33;;;;;;;8.65;5.40;;;;;;;15.00;61.91;98948.69;4343911;32;33115;-84
2023/04/18 03:55:03;;;;;;;9.93;6.00;;;;;;;14.61;63.28;98953.34;4341534;32;33134;-85
2023/04/18 03:57:31;;;;;;;9.52;6.12;;;;;;;14.46;63.66;98956.87;4344525;33;34060;-86
2023/04/18 03:59:59;;;;;;;11.10;6.37;;;;;;;14.08;64.14;98960.56;4342331;32;33601;-85
2023/04/18 04:02:28;;;;;;;8.70;6.03;;;;;;;14.31;63.82;98959.59;4345581;32;32965;-86
2023/04/18 04:04:56;;;;;;;8.73;5.50;;;;;;;14.02;63.69;98960.62;4344924;33;35005;-87
2023/04/18 04:07:24;;;;;;;8.20;5.03;;;;;;;14.09;63.77;98958.81;4345082;33;33758;-86
2023/04/18 04:09:51;;;;;;;9.02;5.65;;;;;;;13.88;63.27;98965.88;4329201;32;34022;-86
2023/04/18 04:12:19;;;;;;;10.15;5.85;;;;;;;13.43;64.45;98972.09;4341632;33;33457;-87
2023/04/18 04:14:46;;;;;;;11.07;5.93;;;;;;;13.83;62.93;98966.78;4341246;32;33589;-85
2023/04/18 04:17:14;;;;;;;8.50;5.82;;;;;;;13.44;64.52;98971.19;4330811;33;34586;-84
2023/04/18 04:19:42;;;;;;;8.77;5.12;;;;;;;13.71;64.13;98974.63;4345498;33;33998;-84
2023/04/18 04:22:10;;;;;;;9.73;5.87;;;;;;;13.78;64.19;98969.38;4320703;33;33099;-85
2023/04/18 04:24:38;;;;;;;8.27;5.55;;;;;;;13.95;63.45;98977.16;4343468;32;33613;-85
2023/04/18 04:27:06;;;;;;;8.20;5.22;;;;;;;14.01;63.58;98979.72;4344295;32;33895;-87
2023/04/18 04:29:34;;;;;;;9.27;5.75;;;;;;;13.59;64.20;98981.59;4338494;32;34562;-87
2023/04/18 04:32:04;;;;;;;7.93;5.25;;;;;;;13.89;63.88;98984.97;4343582;32;33785;-87
2023/04/18 04:34:33;;;;;;;8.60;5.15;;;;;;;13.90;63.69;98978.88;4344602;32;34433;-85
2023/04/18 04:37:02;;;;;;;7.95;5.15;;;;;;;14.10;62.84;98979.69;4345206;33;34821;-85
2023/04/18 04:39:30;;;;;;;8.98;4.60;;;;;;;14.08;62.17;98986.63;4344439;32;33658;-85
2023/04/18 04:42:02;;;;;;;8.18;4.80;;;;;;;14.02;61.93;98986.69;4345577;33;33540;-87
2023/04/18 04:44:32;;;;;;;8.27;4.45;;;;;;;13.60;62.36;98982.47;4343987;32;34924;-88
2023/04/18 04:47:00;;;;;;;8.75;4.75;;;;;;;13.77;61.76;98988.50;4343998;32;33734;-85
2023/04/18 04:49:28;;;;;;;8.07;4.95;;;;;;;13.93;61.69;98991.06;4330883;33;33535;-87
2023/04/18 04:51:55;;;;;;;8.57;4.22;;;;;;;13.81;62.36;99000.63;4345301;33;33842;-87
2023/04/18 04:54:23;;;;;;;8.85;4.78;;;;;;;14.02;61.03;98997.09;4345913;33;34620;-86
2023/04/18 04:56:51;;;;;;;8.80;5.35;;;;;;;14.06;60.36;98992.75;4331362;33;35126;-86
2023/04/18 04:59:19;;;;;;;9.25;4.50;;;;;;;13.82;61.50;99004.97;4329193;33;33177;-88
2023/04/18 05:01:50;;;;;;;7.15;4.22;;;;;;;14.07;60.77;98990.13;4345585;33;34274;-87
2023/04/18 05:04:44;;;;;;;8.32;4.55;;;;;;;13.75;61.90;98998.06;4345715;33;34701;-86
2023/04/18 05:07:12;;;;;;;7.62;5.00;;;;;;;13.74;61.39;99005.88;4345136;33;34133;-85
2023/04/18 05:09:39;;;;;;;6.47;4.03;;;;;;;13.56;62.28;99006.78;4345048;33;33929;-85
2023/04/18 05:12:07;;;;;;;6.97;3.97;;;;;;;14.00;60.32;99009.25;4345335;33;34303;-87
2023/04/18 05:14:35;;;;;;;7.82;4.10;;;;;;;13.47;62.39;99010.28;4345652;33;33511;-86
2023/04/18 05:17:02;;;;;;;7.00;3.85;;;;;;;14.14;60.05;99005.75;4345053;33;34360;-87
2023/04/18 05:19:30;;;;;;;6.75;4.20;;;;;;;14.10;60.19;99005.75;4345468;33;35010;-87
2023/04/18 05:21:58;;;;;;;6.05;3.45;;;;;;;14.21;60.16;99007.47;4345556;33;34427;-86
2023/04/18 05:24:25;;;;;;;6.65;3.70;;;;;;;14.29;59.44;99016.97;4344954;33;33343;-87
2023/04/18 05:26:53;;;;;;;7.47;4.15;;;;;;;14.11;60.82;99011.84;4332070;33;34107;-86
2023/04/18 05:29:20;;;;;;;6.32;3.70;;;;;;;14.27;60.14;99018.72;4344728;33;34285;-87
2023/04/18 05:31:48;;;;;;;6.18;3.85;;;;;;;13.96;61.25;99022.31;4331759;33;34483;-87
2023/04/18 05:34:16;;;;;;;6.45;4.15;;;;;;;14.34;60.30;99019.56;4345353;33;33301;-87
2023/04/18 05:36:43;;;;;;;7.40;4.20;;;;;;;14.52;60.40;99021.25;4345006;33;33530;-85
2023/04/18 05:39:11;;;;;;;6.95;4.22;;;;;;;14.59;60.39;99021.19;4345296;33;32591;-87
2023/04/18 05:41:38;;;;;;;6.70;3.70;;;;;;;14.63;59.93;99031.63;4345029;33;33574;-87
2023/04/18 05:44:06;;;;;;;7.65;4.20;;;;;;;14.76;59.40;99022.84;4344848;33;33892;-87
2023/04/18 05:46:33;;;;;;;8.55;3.85;;;;;;;14.81;59.77;99023.66;4344536;33;35089;-87
2023/04/18 05:49:01;;;;;;;6.93;3.87;;;;;;;14.89;59.81;99024.50;4331966;33;34254;-86
2023/04/18 05:51:30;;;;;;;7.00;4.10;;;;;;;14.44;59.86;99030.81;4344347;33;33352;-86
2023/04/18 05:53:57;;;;;;;9.00;4.62;;;;;;;14.17;61.44;99027.47;4345033;33;33881;-86
2023/04/18 05:56:25;;;;;;;8.38;3.97;;;;;;;14.15;62.06;99026.59;4344894;33;34305;-86
2023/04/18 05:58:52;;;;;;;7.90;4.15;;;;;;;14.33;60.61;99026.53;4344052;33;33712;-86
2023/04/18 06:01:20;;;;;;;7.10;3.87;;;;;;;14.53;60.75;99025.59;4343798;33;33150;-86
2023/04/18 06:03:48;;;;;;;6.47;3.70;;;;;;;14.17;61.82;99035.28;4343961;33;33969;-86
2023/04/18 06:06:15;;;;;;;8.88;4.72;;;;;;;13.95;62.61;99029.28;4343712;33;34960;-86
2023/04/18 06:08:44;;;;;;;7.55;3.97;;;;;;;14.21;62.12;99037.00;4343265;33;33734;-85
2023/04/18 06:11:14;;;;;;;7.97;4.35;;;;;;;14.47;61.10;99036.00;4343282;33;33375;-86
2023/04/18 06:13:41;;;;;;;8.63;4.18;;;;;;;14.41;61.33;99046.47;4330447;33;33927;-86
2023/04/18 06:16:09;;;;;;;8.27;5.32;;;;;;;14.52;61.66;99040.37;4343280;33;33912;-85
2023/04/18 06:18:37;;;;;;;9.15;5.55;;;;;;;14.30;63.20;99046.53;4342768;33;33423;-83
2023/04/18 06:21:04;;;;;;;9.70;5.37;;;;;;;14.02;64.66;99044.03;4341318;33;32011;-83
2023/04/18 06:23:32;;;;;;;8.68;5.50;;;;;;;14.28;63.59;99048.25;4329073;33;33849;-85
2023/04/18 06:25:59;;;;;;;11.63;5.97;;;;;;;14.48;63.36;99048.19;4329086;33;35099;-86
2023/04/18 06:28:27;;;;;;;9.75;5.47;;;;;;;14.37;63.65;99050.84;4328816;33;33828;-86
2023/04/18 06:30:54;;;;;;;10.75;5.60;;;;;;;14.15;63.85;99051.81;4329703;33;34917;-86
2023/04/18 06:33:22;;;;;;;10.73;4.82;;;;;;;14.13;64.08;99049.22;4316195;33;34118;-87
2023/04/18 06:35:50;;;;;;;7.82;4.62;;;;;;;13.94;63.61;99056.22;4344399;33;34133;-86
2023/04/18 06:38:17;;;;;;;9.02;5.72;;;;;;;14.39;61.22;99051.69;4345766;33;33620;-87
2023/04/18 06:40:45;;;;;;;9.10;5.68;;;;;;;14.30;62.38;99050.00;4345961;33;32975;-87
2023/04/18 06:43:12;;;;;;;7.75;4.60;;;;;;;14.57;62.05;99049.03;4345748;33;33775;-84
2023/04/18 06:45:40;;;;;;;7.80;3.62;;;;;;;14.47;61.47;99052.53;4345937;33;35320;-86
2023/04/18 06:48:10;;;;;;;8.75;2.85;;;;;;;14.71;59.70;99050.72;4345762;33;33974;-86
2023/04/18 06:50:37;;;;;;;8.68;2.80;;;;;;;14.69;58.79;99050.69;4345395;33;34399;-86
2023/04/18 06:53:04;;;;;;;7.20;3.10;;;;;;;14.76;56.77;99054.16;4345311;33;33641;-86
2023/04/18 06:55:32;;;;;;;8.95;3.03;;;;;;;14.91;57.28;99048.84;4345566;33;34916;-86
2023/04/18 06:58:00;;;;;;;7.25;3.08;;;;;;;14.88;56.03;99054.06;4339932;33;177137;-87
2023/04/18 07:00:27;;;;;;;5.75;2.62;;;;;;;14.88;56.65;99053.19;4346195;33;34425;-86
2023/04/18 07:02:55;;;;;;;5.45;2.72;;;;;;;15.00;56.29;99048.78;4332859;33;34683;-83
2023/04/18 07:05:22;;;;;;;12.52;3.65;;;;;;;14.91;55.23;99048.84;4346063;33;34143;-87
2023/04/18 07:07:50;;;;;;;5.78;2.50;;;;;;;15.22;54.97;99048.59;4346313;33;33480;-86
2023/04/18 07:10:18;;;;;;;5.50;2.58;;;;;;;15.39;55.05;99054.56;4346320;33;33858;-85
2023/04/18 07:12:46;;;;;;;6.50;3.15;;;;;;;15.32;54.01;99045.06;4346084;33;33988;-86
2023/04/18 07:15:13;;;;;;;7.15;2.62;;;;;;;15.39;56.07;99051.97;4346293;33;34316;-86
2023/04/18 07:17:41;;;;;;;5.22;2.65;;;;;;;15.56;54.06;99055.28;4346176;33;34514;-88
2023/04/18 07:20:10;;;;;;;5.35;2.87;;;;;;;15.64;55.19;99059.56;4346048;33;33562;-88
2023/04/18 07:22:40;;;;;;;7.22;3.35;;;;;;;15.65;53.47;99058.72;4345859;33;34619;-87
2023/04/18 07:25:08;;;;;;;5.62;2.83;;;;;;;15.91;52.97;99055.84;4346132;33;34160;-88
2023/04/18 07:27:35;;;;;;;6.12;2.58;;;;;;;15.69;54.26;99065.66;4346119;33;34798;-88
2023/04/18 07:30:03;;;;;;;4.95;2.30;;;;;;;15.61;52.65;99062.19;4332914;33;33512;-88
2023/04/18 07:32:32;;;;;;;5.50;2.55;;;;;;;15.79;53.08;99057.69;4345606;33;33794;-86
2023/04/18 07:35:00;;;;;;;5.57;3.00;;;;;;;15.79;52.16;99065.53;4346206;33;34038;-86
2023/04/18 07:37:27;;;;;;;6.75;3.08;;;;;;;15.89;53.70;99074.16;4346343;33;33763;-87
2023/04/18 07:39:55;;;;;;;6.50;2.50;;;;;;;16.14;53.53;99072.16;4346392;33;33177;-87
2023/04/18 07:42:22;;;;;;;5.95;2.47;;;;;;;16.01;51.37;99068.81;4346324;33;33750;-87
2023/04/18 07:44:50;;;;;;;6.25;2.40;;;;;;;16.03;53.44;99079.25;4346357;33;33952;-87
2023/04/18 07:47:18;;;;;;;6.65;2.55;;;;;;;15.89;52.90;99071.56;4331932;33;33824;-88
2023/04/18 07:49:48;;;;;;;7.62;2.90;;;;;;;16.18;52.11;99078.22;4346021;33;34595;-87
2023/04/18 07:52:16;;;;;;;7.78;2.87;;;;;;;15.89;53.28;99079.41;4346110;33;33976;-87
2023/04/18 07:54:43;;;;;;;7.82;2.78;;;;;;;16.14;52.31;99074.78;4332460;33;34262;-86
2023/04/18 07:57:11;;;;;;;5.20;2.45;;;;;;;16.30;52.19;99080.69;4346096;33;33806;-88
2023/04/18 07:59:38;;;;;;;8.18;2.47;;;;;;;16.18;51.44;99086.06;4345563;33;33272;-87
2023/04/18 08:02:06;;;;;;;5.30;2.80;;;;;;;16.38;50.64;99089.31;4345677;33;34053;-87
2023/04/18 08:04:34;;;;;;;6.75;2.70;;;;;;;16.37;50.84;99078.87;4332458;33;34155;-87
2023/04/18 08:07:02;;;;;;;6.55;2.70;;;;;;;16.54;50.97;99088.22;4345956;33;33778;-86
2023/04/18 08:09:29;;;;;;;5.78;2.47;;;;;;;16.36;51.97;99083.22;4345492;33;33546;-87
2023/04/18 08:11:58;;;;;;;6.90;2.97;;;;;;;15.96;51.90;99085.44;4332521;33;33962;-86
2023/04/18 08:14:25;;;;;;;9.60;5.18;;;;;;;16.48;51.14;99085.72;4346190;33;34260;-87
2023/04/18 08:16:52;;;;;;;6.10;2.53;;;;;;;16.38;51.76;99094.56;4345426;33;34108;-87
2023/04/18 08:19:20;;;;;;;7.32;3.25;;;;;;;16.40;52.05;99086.66;4345935;33;33585;-87
2023/04/18 08:21:49;;;;;;;7.50;3.08;;;;;;;16.12;51.41;99094.84;4345879;33;33542;-87
2023/04/18 08:24:17;;;;;;;8.27;2.67;;;;;;;16.57;50.77;99094.34;4331785;33;34245;-87
2023/04/18 08:26:45;;;;;;;7.12;2.37;;;;;;;16.23;49.98;99094.72;4345848;33;34013;-87
2023/04/18 08:29:12;;;;;;;7.40;2.72;;;;;;;15.98;51.92;99100.22;4345882;33;33459;-86
2023/04/18 08:31:40;;;;;;;6.12;2.47;;;;;;;16.26;50.88;99100.78;4345548;33;33939;-85
2023/04/18 08:34:08;;;;;;;7.53;2.40;;;;;;;16.50;51.00;99104.88;4346016;33;34211;-85
2023/04/18 08:36:35;;;;;;;5.53;2.20;;;;;;;16.63;50.20;99097.75;4345582;33;34097;-85
2023/04/18 08:39:03;;;;;;;5.28;2.20;;;;;;;16.72;49.49;99100.22;4345524;33;33829;-85
2023/04/18 08:41:36;;;;;;;7.00;3.30;;;;;;;16.84;51.08;99098.38;4345348;33;34783;-86
2023/04/18 08:44:05;;;;;;;36.95;9.30;;;;;;;16.71;49.55;99103.75;4345830;33;35194;-85
2023/04/18 08:46:34;;;;;;;13.10;3.67;;;;;;;16.69;50.56;99108.13;4345282;33;34822;-85
2023/04/18 08:49:05;;;;;;;14.18;3.80;;;;;;;16.68;49.40;99109.00;4332175;33;32889;-86
2023/04/18 08:51:33;;;;;;;8.70;3.10;;;;;;;16.64;49.36;99102.09;4345310;33;33728;-86
2023/04/18 08:54:03;;;;;;;9.10;3.47;;;;;;;16.60;51.36;99096.91;4345603;33;34112;-87
2023/04/18 08:56:30;;;;;;;5.35;2.50;;;;;;;16.72;49.75;99100.22;4345109;33;34648;-86
2023/04/18 08:58:59;;;;;;;7.78;2.67;;;;;;;16.79;52.42;99095.81;4344809;33;33772;-86
2023/04/18 09:01:50;;;;;;;6.82;2.03;;;;;;;16.86;49.55;99102.72;4345428;33;33935;-87
2023/04/18 09:04:35;;;;;;;3.70;1.98;;;;;;;17.06;48.87;99109.41;4332498;33;33675;-86
2023/04/18 09:07:08;;;;;;;4.03;2.15;;;;;;;17.06;49.59;99109.41;4345678;33;34758;-86
2023/04/18 09:09:40;;;;;;;5.55;2.10;;;;;;;17.07;48.82;99111.13;4345702;33;33558;-86
2023/04/18 09:12:10;;;;;;;3.85;1.90;;;;;;;17.22;48.00;99103.06;4345614;33;34012;-86
2023/04/18 09:14:41;;;;;;;6.37;2.80;;;;;;;17.29;47.88;99096.84;4345391;33;34231;-86
2023/04/18 09:17:11;;;;;;;6.25;2.67;;;;;;;17.48;47.27;99100.88;4345397;33;33989;-87
2023/04/18 09:19:49;;;;;;;4.25;1.70;;;;;;;17.54;47.51;99088.56;4332267;33;33912;-86
2023/04/18 09:53:56;;;;;;;7.55;2.65;;;;;;;17.42;46.66;99103.59;4717377;27;20163;-86
2023/04/18 09:56:26;;;;;;;5.30;2.20;;;;;;;17.48;46.75;99106.12;4364995;32;34845;-86
2023/04/18 09:58:55;;;;;;;4.60;1.67;;;;;;;17.19;47.67;99098.72;4364610;32;35245;-86
2023/04/18 10:01:27;;;;;;;4.35;1.70;;;;;;;17.40;46.78;99104.53;4377334;32;35457;-86
2023/04/18 10:03:56;;;;;;;5.20;2.03;;;;;;;17.63;45.58;99096.28;4377360;32;34990;-86
2023/04/18 10:06:26;;;;;;;4.35;1.80;;;;;;;17.96;44.98;99097.50;4364789;32;34865;-86
2023/04/18 10:08:54;;;;;;;3.70;1.83;;;;;;;18.06;43.05;99099.03;4365020;32;35239;-86
2023/04/18 10:11:22;;;;;;;4.78;1.67;;;;;;;17.73;44.44;99092.63;4365977;32;35367;-86
2023/04/18 10:13:55;;;;;;;5.78;1.80;;;;;;;17.81;45.22;99096.00;4366501;32;35249;-86
2023/04/18 10:16:23;;;;;;;5.72;1.87;;;;;;;17.87;45.74;99095.88;4366726;32;34519;-86
2023/04/18 10:18:50;;;;;;;7.25;1.87;;;;;;;17.94;44.37;99097.50;4366596;32;35199;-86
2023/04/18 10:21:18;;;;;;;5.30;1.87;;;;;;;18.15;44.69;99101.50;4379033;32;34975;-86
2023/04/18 10:23:47;;;;;;;6.68;1.60;;;;;;;18.37;42.74;99088.84;4379037;32;35551;-86
2023/04/18 10:26:15;;;;;;;3.55;1.62;;;;;;;18.28;42.63;99091.63;4378888;32;35055;-87
2023/04/18 10:28:56;;;;;;;6.50;1.95;;;;;;;18.05;44.08;99099.06;4378994;32;35294;-86
2023/04/18 10:31:26;;;;;;;9.23;2.17;;;;;;;17.70;44.16;99087.44;4366602;32;34846;-86
2023/04/18 10:33:56;;;;;;;4.93;1.92;;;;;;;18.36;43.25;99089.69;4366310;32;34882;-86
2023/04/18 10:36:27;;;;;;;4.10;1.62;;;;;;;18.53;43.93;99097.25;4366756;32;34294;-86
2023/04/18 10:38:59;;;;;;;4.85;1.75;;;;;;;18.59;43.77;99091.84;4378855;32;35210;-86
2023/04/18 10:41:28;;;;;;;5.10;1.92;;;;;;;19.07;43.29;99096.13;4378824;32;35033;-86
2023/04/18 10:44:08;;;;;;;4.25;1.62;;;;;;;18.93;41.64;99094.66;4366172;32;33841;-86
2023/04/18 10:47:07;;;;;;;6.95;1.83;;;;;;;19.14;42.96;99081.94;4366351;32;34004;-86
2023/04/18 10:49:35;;;;;;;5.60;2.20;;;;;;;19.12;42.47;99084.59;4378571;32;34948;-87
2023/04/18 10:52:04;;;;;;;3.53;1.87;;;;;;;19.18;41.97;99086.22;4367943;32;35588;-86
2023/04/18 10:54:53;;;;;;;4.20;1.77;;;;;;;19.52;41.62;99077.53;4378857;32;35300;-86
2023/04/18 10:57:23;;;;;;;3.92;1.42;;;;;;;19.30;41.48;99080.66;4381375;32;34902;-87
2023/04/18 10:59:51;;;;;;;4.97;2.05;;;;;;;19.26;40.49;99078.16;4393761;32;35265;-86
2023/04/18 11:02:25;;;;;;;4.65;1.70;;;;;;;19.12;42.33;99081.09;4393818;32;35360;-86
2023/04/18 11:04:55;;;;;;;6.50;2.12;;;;;;;19.38;41.12;99073.47;4381230;32;35400;-86
2023/04/18 11:07:36;;;;;;;5.45;1.95;;;;;;;19.23;41.00;99068.56;4381045;32;34288;-86
2023/04/18 11:10:05;;;;;;;4.10;2.00;;;;;;;19.08;41.84;99074.19;4380963;32;35232;-86
2023/04/18 11:12:37;;;;;;;5.12;2.15;;;;;;;18.97;42.10;99074.44;4381157;32;34968;-86
2023/04/18 11:15:10;;;;;;;4.30;2.00;;;;;;;18.92;43.02;99086.81;4381010;32;35009;-86
2023/04/18 11:17:38;;;;;;;4.97;2.28;;;;;;;19.07;43.07;99083.84;4381216;32;34989;-86
2023/04/18 11:20:12;;;;;;;6.12;2.17;;;;;;;18.86;43.11;99085.19;4380942;32;35348;-86
2023/04/18 11:22:50;;;;;;;6.32;2.35;;;;;;;18.51;43.95;99082.41;4381189;32;35535;-86
2023/04/18 11:25:22;;;;;;;4.00;1.75;;;;;;;18.37;44.67;99085.31;4393567;32;34836;-86
2023/04/18 11:27:50;;;;;;;6.55;2.10;;;;;;;18.19;45.21;99086.56;4381051;32;34853;-86
2023/04/18 11:30:17;;;;;;;5.93;2.22;;;;;;;18.44;44.00;99087.78;4393635;32;35470;-87
2023/04/18 11:32:45;;;;;;;8.00;2.90;;;;;;;18.17;45.32;99090.97;4393566;32;36250;-86
2023/04/18 11:35:13;;;;;;;4.60;2.05;;;;;;;18.27;46.24;99089.91;4380980;32;34785;-86
2023/04/18 11:37:44;;;;;;;5.30;1.98;;;;;;;18.64;43.88;99090.03;4380975;32;34803;-86
2023/04/18 11:40:13;;;;;;;4.80;1.87;;;;;;;18.69;43.71;99093.41;4393226;32;35233;-87
2023/04/18 11:42:40;;;;;;;4.80;1.80;;;;;;;18.53;44.17;99085.91;4393621;32;34943;-86
2023/04/18 11:45:12;;;;;;;3.25;1.60;;;;;;;18.79;41.17;99085.34;4393544;32;34914;-86
2023/04/18 11:47:41;;;;;;;7.28;1.45;;;;;;;18.92;40.57;99079.78;4380787;32;34973;-86
2023/04/18 11:50:10;;;;;;;4.20;1.70;;;;;;;18.23;42.65;99085.59;4393601;32;34682;-86
2023/04/18 11:52:40;;;;;;;5.00;1.55;;;;;;;18.31;43.40;99083.69;4393264;32;35036;-86
2023/04/18 11:55:26;;;;;;;4.20;1.55;;;;;;;18.51;43.68;99087.66;4380723;32;35340;-87
2023/04/18 11:57:57;;;;;;;4.65;1.80;;;;;;;18.32;42.83;99088.03;4393421;32;34497;-86
2023/04/18 12:00:35;;;;;;;7.90;2.45;;;;;;;18.52;43.34;99081.50;4393406;32;35358;-86
2023/04/18 12:03:09;;;;;;;5.70;1.80;;;;;;;18.82;41.51;99083.50;4393429;32;35458;-87
2023/04/18 12:05:41;;;;;;;4.72;1.83;;;;;;;19.05;41.82;99079.50;4393346;32;35460;-86
2023/04/18 12:08:10;;;;;;;5.10;1.83;;;;;;;18.97;42.24;99074.44;4393282;32;35780;-87
2023/04/18 12:10:52;;;;;;;4.30;1.62;;;;;;;19.19;41.20;99075.66;4380596;32;35359;-86
2023/04/18 12:13:30;;;;;;;7.07;2.00;;;;;;;18.96;42.77;99076.19;4393353;32;35492;-86